Timeline UpdatesTrip UpdatesNews PostsPvt PostsTravel TipsAdmin PostsConv PostsFollowed PostsChat RequestsBlog PostsPNR Posts

Disclaimer
Search
 
 
Wed Jul 30, 2014 00:23:52 ISTHomeTrainsΣChainsAtlasPNRForumGalleryNewsFAQTripsMembersLoginFeedback
No Recent News for this Train
Other Trains in the News **new
Latest...
.
Tue May 06, 2014 (07:41AM)
⇐ Return Journey: Train# 16649

16650/Parashuram Express

Feb 21 2014 (7:41PM)
Change Departure Station:
Change Arrival Station:
Post a Train Travel TipPost a Train Travel Tip **new
Post a Comment/Question/Picture/VideoPost a Comment/Question/Picture/Video
Pantry/Catering
✓ Pantry Car Avbl
✓ Catering Avbl
RSA - Rake Sharing
Rake/Coach Composition
Loco SLR GEN GEN GEN GEN F1 C2 C1 D1 PC GEN GEN GEN GEN GEN GEN GEN GEN GEN SLR. FC is usually placed in the middle of the train and is meant for MST Holders. One can also avail the facility of manual upgradation.
Loco
NCJ-SRR :ED/RPM WAP 4 SRR-MAQ :ED WDM-3D/ ERS WDM 3A
News    PNR    Forum    Time-Table    Availability    Fare Chart    Map    Arr/Dep History    Trips    Gallery    ΣChains    X/O    Timeline    
Travel Time: 11h 45m    34 halts    Distance: 506 km    Avg Speed: 43 km/hr
Type: Mail/Express
Zone: SR/Southern
Departs @ 08:45 (Avg 18m late)
Platform# 3
SMTWTFS
Chengannur/CNGR 
Arrives @ 20:30 (Avg 4m late)
Platform# 1
SMTWTFS
Mangalore Central/MAQ 

34 halts. 94 intermediate Stations between Chengannur and Mangalore Central

Show ALL intermediate Stations  Show Old Time-Table

#CodeStation NameX/OArrivesAvgDepartsAvgHaltPFDay#KmSpeedElevZoneAddress
1NCJNagercoil Junction (4)  -04:20+1--1-196.75822mSRNagercoil-629002, Tamil Nadu
2ERLEranielX  04:39+404:40+141m--1-178.46419mSRKanyakumari, Tamil Nadu
3KZTKulitturai  04:54+1604:55+181m--1-163.66629mSRMarthandam, Tamil Nadu
4PASAParassala  05:04+2005:05+201m--1-153.73445mSRParassala, Kerala
5NYYNeyyattinkara  05:24+1205:25+131m--1-142.82111mSRThiruvananthapuram, Kerala
6TVCTrivandrum Central (5)  06:15+006:25+210m51-125.66712mSRThiruvananthapuram 695001, Kerala
7KZKKazhakkuttam (3)X06:37+506:38+51m--1-112.37920mSRKulathoor ► Kazhakootam Road Kazhakootam PO Thiruvananthapuram, Kerala
8VAKVarkala Sivagiri (3)X  06:59+807:00+81m--1-84.77552mSREdava Kappil Road, Kerala
9PVUParavur (3)07:09+1007:10+101m--1-73.45018mSRParavoor, Kerala
10QLNKollam Junction (6)X  07:25+1007:30+105m21-61.06116mSRKollam 0474-2746194, Kerala
11STKTSasthamkotta (2)X  07:49+1207:50+131m--1-41.6510mSRKollam Dist, Kerala
12KPYKarunagappalli (2)X  07:59+1708:00+171m11-33.94112mSRKollam Dist, Kerala
13KYJKayamkulam Junction (5)  08:20+1408:22+142m--1-20.25111mSRAlappuzha Ph;0479-2442042, Kerala
14MVLKMavelikara (3)  08:31+1508:32+161m21-12.56313mSRMavelikkara Ph: 0479-2302249, Kerala
15CNGR»Chengannur (3)»  08:44+1508:45+181m310.0606mSRPh: 0479-2452340, Kerala
16TRVLTiruvalla (2)  08:54+2108:55+231m--19.15227mSRPh: 0469-2601314, Kerala
17CGYChanganassery (3)  09:04+2309:05+241m--116.93611mSRPh: 0481- 2420108, Kerala
18KTYMKottayam (3)  09:35+1509:38+183m--134.85815mSRTel: 0481 2563535, Kerala
19ETMEttumanur (1)  09:49+2309:50+241m1145.35228mSRKottayam, Kerala
20PVRDPiravom RoadX  10:14+2710:15+301m--166.04612mSRKottayam, Kerala
21TRTRThrippunithura (2)X10:40+2810:41+281m--185.1315mSRErnakulam, Kerala
22ERNErnakulam Town (North) (2)X  11:00+3011:05+305m1194.7449mSRTel: 0484 2395198, Kerala
23AWYAluva (3)  11:28+2811:30+282m31111.66112mSRPh: 0484-2624141, Kerala
24AFKAngamaly for Kalady (3)X  11:39+3111:40+311m--1120.88716mSRPhone: 0484-2452340, Kerala
25DINRDivine Nagar (2)  11:49+2111:50+211m21133.83316mSRThrissur, Kerala
26CKIChalakkudy (3)X  11:54+3311:55+331m21136.0439mSRPh: 0480- 2701368, Kerala
27IJKIrinjalakkuda (2)  12:04+3212:05+331m--1142.46818mSRKalletumkara, Kerala
28PUKPudukkad (2)X  12:14+3712:15+371m--1152.73711mSRPudukad, Kerala
29TCRThrissur (4)  12:37+2912:40+283m21166.2586mSRThrissur Tel: 0487 2423150, Kerala
30WKIWadakkanchery (2)  12:57+2912:58+301m21182.62740mSRWadackanchery, Kerala
31SRRShoranur Junction (7)13:35+2813:45+3610m61199.15026mSRShoranur ph.no 0466-2222913, Kerala
32PTBPattambi (2)X  13:59+3514:00+351m--1210.75821mSRPattambi, Kerala
33KTUKuttippuram (2)X  14:19+3614:20+371m--1229.14817mSRKuttippuram, Kerala
34TIRTirur (3)X  14:39+3414:40+351m--1244.2699mSRTel: 0494 2422240, Kerala
35TATanur (3)  14:47+3714:48+371m--1252.25411mSRMalappuram, Kerala
36PGIParappangadi (2)  14:57+3714:58+381m--1260.35719mSRParappanangadi, Kerala
37FKFerok (2)X  15:14+3815:15+381m--1275.52419mSRFeroke, Kerala
38CLTKozhikode Main (4)  15:40+2815:45+295m--1285.46611mSRCalicut Tel: 0495 2701234, Kerala
39QLDKoyilandy (3)  16:07+3116:08+321m--1309.87311mSRQuilandi, Kerala
40BDJVadakara (2)  16:26+3216:27+341m21331.77711mSRCalicut / Station Ph No : 0496-2524254, Kerala
41MAHEMahe (2)X  16:37+3816:38+381m--1344.65016mSRMahe, Puducherry
42TLYThalassery (2)  16:49+3716:50+391m--1353.8289mSRKannur, Kerala
43CANKannur Main (3)  17:35+1817:40+255m11374.56214mSRKannur Tel: 0497 2705555, Kerala
44KPQKannapuram (2)X  17:54+2817:55+291m11389.0509mSRKannur District, Kerala
45PAZPayangadi (2)X  18:04+2818:05+281m11396.55812mSRKannur District, Kerala
46PAYPayyanur (3)X  18:17+2618:18+261m--1408.1570mSRKannur District, Kerala
47NLENileshwar (2)  18:39+2918:40+301m--1428.26212mSRNileswaram, Kerala
48KZEKanhangad (3)X  18:49+2918:50+311m--1437.47315mSRKanhangad, Kerala
49KGQKasaragod (3)X  19:09+2719:10+281m--1460.53418mSRTel: 04994 220800, Kerala
50MAQ•Mangalore Central (4)•  20:30+4-11506.3-14mSRMangalore 575001, Karnataka
Scroll to Top
Scroll to Bottom